Time;durP1;ratioP1;P1;durP2;ratioP2;P2;SDS_P1;SDS_P2;PMS_P1;PMS_P2;Temp;Humidity;BMP_temperature;BMP_pressure;BME280_temperature;BME280_humidity;BME280_pressure;Samples;Min_cycle;Max_cycle;Signal;HPM_P1;HPM_P2
2023/09/06 00:03:50;;;;;;;;;;;20.30;99.90;;;;;;6715710;88;20095;-77
2023/09/06 00:13:52;;;;;;;;;;;19.90;99.90;;;;;;6712673;88;20249;-79
2023/09/06 00:23:53;;;;;;;;;;;19.70;99.90;;;;;;6711209;88;20133;-78
2023/09/06 00:33:53;;;;;;;;;;;19.40;99.90;;;;;;6712608;88;20125;-81
2023/09/06 00:43:54;;;;;;;;;;;19.10;99.90;;;;;;6721331;88;20067;-78
2023/09/06 00:53:55;;;;;;;;;;;18.90;99.90;;;;;;6711628;88;20500;-78
2023/09/06 01:03:57;;;;;;;;;;;18.70;99.90;;;;;;6715741;88;20091;-77
2023/09/06 01:13:58;;;;;;;;;;;18.60;99.90;;;;;;6719470;88;20580;-78
2023/09/06 01:23:59;;;;;;;;;;;18.40;99.90;;;;;;6718655;88;20064;-78
2023/09/06 01:34:00;;;;;;;;;;;18.40;99.90;;;;;;6712595;88;20101;-78
2023/09/06 01:44:00;;;;;;;;;;;18.20;99.90;;;;;;6713453;88;20538;-78
2023/09/06 01:54:04;;;;;;;;;;;18.10;99.90;;;;;;6720841;88;20056;-77
2023/09/06 02:04:06;;;;;;;;;;;18.00;99.90;;;;;;6720084;88;20047;-78
2023/09/06 02:14:06;;;;;;;;;;;17.80;99.90;;;;;;6718805;88;20059;-78
2023/09/06 02:24:08;;;;;;;;;;;17.70;99.90;;;;;;6722812;88;20084;-78
2023/09/06 02:34:09;;;;;;;;;;;17.70;99.90;;;;;;6728883;88;20088;-78
2023/09/06 02:44:09;;;;;;;;;;;17.70;99.90;;;;;;6724846;88;20118;-78
2023/09/06 02:54:10;;;;;;;;;;;17.40;99.90;;;;;;6723783;88;20627;-78
2023/09/06 03:04:13;;;;;;;;;;;17.10;99.90;;;;;;6722631;88;20121;-78
2023/09/06 03:14:15;;;;;;;;;;;17.00;99.90;;;;;;6727599;88;20072;-78
2023/09/06 03:24:17;;;;;;;;;;;16.90;99.90;;;;;;6717451;88;20073;-78
2023/09/06 03:34:18;;;;;;;;;;;16.70;99.90;;;;;;6716642;88;20667;-77
2023/09/06 03:44:19;;;;;;;;;;;16.70;99.90;;;;;;6698190;88;20122;-78
2023/09/06 03:54:20;;;;;;;;;;;16.90;99.90;;;;;;6709748;88;20507;-78
2023/09/06 04:04:20;;;;;;;;;;;17.00;99.90;;;;;;6714598;88;20080;-77
2023/09/06 04:25:23;;;;;;;;;;;16.60;99.90;;;;;;6709797;88;20050;-81
2023/09/06 04:35:25;;;;;;;;;;;16.40;99.90;;;;;;6743100;88;20083;-80
2023/09/06 04:45:26;;;;;;;;;;;16.10;99.90;;;;;;6736971;88;20071;-79
2023/09/06 04:55:26;;;;;;;;;;;16.10;99.90;;;;;;6737751;88;20068;-81
2023/09/06 05:05:27;;;;;;;;;;;16.00;99.90;;;;;;6740241;88;20080;-79
2023/09/06 05:15:28;;;;;;;;;;;15.80;99.90;;;;;;6730700;88;20065;-80
2023/09/06 05:25:29;;;;;;;;;;;15.70;99.90;;;;;;6732651;88;20068;-80
2023/09/06 05:35:29;;;;;;;;;;;15.80;99.90;;;;;;6732931;88;20083;-81
2023/09/06 05:45:30;;;;;;;;;;;16.00;99.90;;;;;;6741602;88;20054;-80
2023/09/06 05:55:33;;;;;;;;;;;16.20;99.90;;;;;;6737111;88;20110;-79
2023/09/06 06:05:33;;;;;;;;;;;16.40;99.90;;;;;;6741125;88;20054;-81
2023/09/06 06:15:34;;;;;;;;;;;16.60;99.90;;;;;;6745083;88;20082;-79
2023/09/06 06:25:36;;;;;;;;;;;17.20;99.90;;;;;;6736229;88;20110;-81
2023/09/06 06:35:36;;;;;;;;;;;17.80;99.90;;;;;;6740256;88;20185;-80
2023/09/06 06:45:36;;;;;;;;;;;18.10;99.90;;;;;;6737247;88;20064;-80
2023/09/06 06:55:37;;;;;;;;;;;18.70;99.90;;;;;;6727471;88;20059;-81
2023/09/06 07:05:38;;;;;;;;;;;19.30;99.90;;;;;;6728097;88;20055;-79
2023/09/06 07:15:38;;;;;;;;;;;19.70;99.90;;;;;;6725805;88;20067;-78
2023/09/06 07:25:43;;;;;;;;;;;20.20;99.90;;;;;;6727237;88;20092;-78
2023/09/06 07:35:44;;;;;;;;;;;20.90;99.90;;;;;;6722161;88;20093;-79
2023/09/06 07:45:44;;;;;;;;;;;21.20;99.90;;;;;;6723412;88;20182;-78
2023/09/06 07:55:46;;;;;;;;;;;21.80;99.90;;;;;;6725449;88;20088;-78
2023/09/06 08:05:46;;;;;;;;;;;22.50;99.90;;;;;;6725646;88;20070;-78
2023/09/06 08:15:47;;;;;;;;;;;23.10;99.90;;;;;;6716794;88;20088;-76
2023/09/06 08:25:48;;;;;;;;;;;23.60;99.90;;;;;;6715686;88;20648;-77
2023/09/06 08:35:48;;;;;;;;;;;23.90;99.90;;;;;;6722884;88;20087;-77
2023/09/06 08:45:51;;;;;;;;;;;24.70;99.90;;;;;;6725507;88;20067;-78
2023/09/06 08:55:51;;;;;;;;;;;24.80;99.90;;;;;;6721108;88;20124;-77
2023/09/06 09:05:57;;;;;;;;;;;25.30;99.90;;;;;;6715978;88;20106;-77
2023/09/06 09:15:57;;;;;;;;;;;26.20;99.90;;;;;;6721679;88;20133;-77
2023/09/06 09:25:58;;;;;;;;;;;26.80;99.90;;;;;;6720608;88;20075;-77
2023/09/06 09:35:58;;;;;;;;;;;27.00;99.80;;;;;;6730485;88;20062;-77
2023/09/06 09:45:59;;;;;;;;;;;28.00;99.10;;;;;;6729836;88;20088;-78
2023/09/06 09:56:06;;;;;;;;;;;27.80;99.20;;;;;;6721041;88;20083;-78
2023/09/06 10:06:06;;;;;;;;;;;28.30;99.20;;;;;;6719525;88;22167;-76
2023/09/06 10:16:07;;;;;;;;;;;28.50;97.60;;;;;;6716269;78;20230;-78
2023/09/06 10:26:08;;;;;;;;;;;29.00;97.80;;;;;;6693152;88;20174;-77
2023/09/06 10:36:09;;;;;;;;;;;29.50;97.20;;;;;;6692711;88;20102;-79
2023/09/06 10:46:10;;;;;;;;;;;29.70;97.00;;;;;;6691361;88;20117;-79
2023/09/06 10:56:12;;;;;;;;;;;29.60;95.70;;;;;;6693706;88;20076;-78
2023/09/06 11:06:13;;;;;;;;;;;30.50;94.50;;;;;;6695495;89;20076;-78
2023/09/06 11:16:15;;;;;;;;;;;30.40;94.30;;;;;;6715001;88;20085;-78
2023/09/06 11:26:16;;;;;;;;;;;31.10;93.40;;;;;;6737407;88;20064;-78
2023/09/06 11:36:17;;;;;;;;;;;32.40;91.70;;;;;;6726732;88;20183;-78
2023/09/06 11:46:18;;;;;;;;;;;31.90;91.40;;;;;;6721964;88;20256;-77
2023/09/06 11:56:24;;;;;;;;;;;33.50;88.80;;;;;;6725128;88;20132;-79
2023/09/06 12:06:28;;;;;;;;;;;33.90;85.10;;;;;;6732988;88;20106;-76
2023/09/06 12:16:30;;;;;;;;;;;33.10;83.20;;;;;;6728181;88;20114;-79
2023/09/06 12:26:31;;;;;;;;;;;33.00;82.60;;;;;;6729254;88;20163;-79
2023/09/06 12:36:31;;;;;;;;;;;33.50;80.20;;;;;;6730980;88;20079;-80
2023/09/06 12:46:32;;;;;;;;;;;33.00;80.00;;;;;;6728109;88;20070;-78
2023/09/06 12:56:32;;;;;;;;;;;34.60;78.90;;;;;;6730920;88;20082;-77
2023/09/06 13:06:33;;;;;;;;;;;33.90;79.10;;;;;;6725524;88;20464;-77
2023/09/06 13:16:33;;;;;;;;;;;34.40;79.00;;;;;;6733783;88;20547;-79
2023/09/06 13:26:33;;;;;;;;;;;33.90;79.30;;;;;;6730319;88;20496;-79
2023/09/06 13:36:36;;;;;;;;;;;33.90;79.10;;;;;;6733783;88;20058;-79
2023/09/06 13:46:36;;;;;;;;;;;34.20;80.00;;;;;;6728134;88;20576;-78
2023/09/06 13:56:37;;;;;;;;;;;33.70;79.20;;;;;;6726724;88;20099;-78
2023/09/06 14:06:38;;;;;;;;;;;33.90;80.00;;;;;;6729378;88;20676;-79
2023/09/06 14:16:39;;;;;;;;;;;33.20;80.30;;;;;;6735279;88;20114;-79
2023/09/06 14:26:39;;;;;;;;;;;32.80;81.20;;;;;;6731293;88;20436;-79
2023/09/06 14:36:40;;;;;;;;;;;32.80;80.60;;;;;;6735835;88;20065;-79
2023/09/06 14:46:42;;;;;;;;;;;32.70;80.00;;;;;;6737408;88;20051;-79
2023/09/06 14:56:43;;;;;;;;;;;32.70;80.20;;;;;;6735554;88;20850;-77
2023/09/06 15:06:43;;;;;;;;;;;33.00;78.80;;;;;;6737035;88;20072;-77
2023/09/06 15:16:45;;;;;;;;;;;33.00;79.10;;;;;;6737951;88;20099;-80
2023/09/06 15:26:45;;;;;;;;;;;33.10;78.60;;;;;;6739438;88;20078;-79
2023/09/06 15:36:45;;;;;;;;;;;32.10;78.50;;;;;;6736292;88;20054;-80
2023/09/06 15:46:46;;;;;;;;;;;32.10;77.70;;;;;;6740836;88;20687;-80
2023/09/06 15:56:49;;;;;;;;;;;31.80;78.20;;;;;;6742964;88;20035;-78
2023/09/06 16:06:50;;;;;;;;;;;31.60;80.40;;;;;;6746719;88;20874;-78
2023/09/06 16:16:50;;;;;;;;;;;31.20;81.10;;;;;;6749502;77;20151;-81
2023/09/06 16:26:54;;;;;;;;;;;31.60;82.30;;;;;;6731414;88;20194;-81
2023/09/06 16:36:55;;;;;;;;;;;31.50;81.90;;;;;;6735419;88;20074;-80
2023/09/06 16:46:57;;;;;;;;;;;31.10;83.20;;;;;;6730427;88;21058;-79
2023/09/06 16:56:57;;;;;;;;;;;30.50;83.10;;;;;;6721538;88;20112;-81
2023/09/06 17:06:58;;;;;;;;;;;30.10;83.40;;;;;;6716211;88;20231;-75
2023/09/06 17:16:58;;;;;;;;;;;29.70;84.40;;;;;;6701933;88;20195;-77
2023/09/06 17:26:59;;;;;;;;;;;29.20;85.70;;;;;;6685298;88;20080;-75
2023/09/06 17:37:00;;;;;;;;;;;28.80;86.30;;;;;;6700017;88;20055;-76
2023/09/06 17:47:02;;;;;;;;;;;28.40;87.30;;;;;;6699774;88;20593;-75
2023/09/06 17:57:04;;;;;;;;;;;28.00;89.50;;;;;;6692703;88;20106;-76
2023/09/06 18:07:04;;;;;;;;;;;27.50;90.80;;;;;;6691125;88;20198;-75
2023/09/06 18:17:05;;;;;;;;;;;26.80;91.30;;;;;;6696329;88;20148;-78
2023/09/06 18:27:06;;;;;;;;;;;26.40;92.40;;;;;;6695411;88;20059;-77
2023/09/06 18:37:08;;;;;;;;;;;25.80;93.20;;;;;;6703301;88;20221;-77
2023/09/06 18:47:08;;;;;;;;;;;25.30;94.70;;;;;;6697147;88;20713;-76
2023/09/06 18:57:10;;;;;;;;;;;24.90;96.30;;;;;;6698793;88;20150;-76
2023/09/06 19:07:10;;;;;;;;;;;24.40;99.70;;;;;;6695549;88;20059;-76
2023/09/06 19:17:11;;;;;;;;;;;24.10;99.90;;;;;;6695975;88;20193;-76
2023/09/06 19:27:11;;;;;;;;;;;23.80;99.90;;;;;;6711555;88;20490;-76
2023/09/06 19:37:11;;;;;;;;;;;23.50;99.90;;;;;;6711268;88;20100;-77
2023/09/06 19:47:16;;;;;;;;;;;23.30;99.90;;;;;;6717310;88;20113;-76
2023/09/06 19:57:17;;;;;;;;;;;23.10;99.90;;;;;;6709956;88;20217;-77
2023/09/06 20:07:17;;;;;;;;;;;22.80;99.90;;;;;;6710151;88;20532;-76
2023/09/06 20:17:18;;;;;;;;;;;22.40;99.90;;;;;;6708986;88;20081;-78
2023/09/06 20:27:18;;;;;;;;;;;22.20;99.90;;;;;;6713311;88;20074;-77
2023/09/06 20:37:19;;;;;;;;;;;22.10;99.90;;;;;;6707935;88;20055;-77
2023/09/06 20:47:19;;;;;;;;;;;21.90;99.90;;;;;;6701684;88;20110;-78
2023/09/06 20:57:19;;;;;;;;;;;21.70;99.90;;;;;;6709952;88;20058;-77
2023/09/06 21:07:20;;;;;;;;;;;21.30;99.90;;;;;;6710118;88;20055;-76
2023/09/06 21:17:20;;;;;;;;;;;21.20;99.90;;;;;;6711824;88;20071;-77
2023/09/06 21:27:21;;;;;;;;;;;20.90;99.90;;;;;;6707316;88;20578;-77
2023/09/06 21:37:21;;;;;;;;;;;20.70;99.90;;;;;;6699507;88;20067;-78
2023/09/06 21:47:22;;;;;;;;;;;20.30;99.90;;;;;;6710369;88;20047;-77
2023/09/06 21:57:22;;;;;;;;;;;20.30;99.90;;;;;;6710936;88;20067;-77
2023/09/06 22:07:23;;;;;;;;;;;20.20;99.90;;;;;;6708765;88;20091;-76
2023/09/06 22:17:23;;;;;;;;;;;19.90;99.90;;;;;;6719531;77;20081;-77
2023/09/06 22:27:24;;;;;;;;;;;19.80;99.90;;;;;;6710598;88;20626;-77
2023/09/06 22:37:24;;;;;;;;;;;19.60;99.90;;;;;;6706230;88;20112;-78
2023/09/06 22:47:25;;;;;;;;;;;19.50;99.90;;;;;;6707128;88;20083;-79
2023/09/06 22:57:25;;;;;;;;;;;19.50;99.90;;;;;;6707758;88;20076;-78
2023/09/06 23:07:27;;;;;;;;;;;19.30;99.90;;;;;;6706099;88;20143;-78
2023/09/06 23:17:31;;;;;;;;;;;19.10;99.90;;;;;;6714564;88;20114;-79
2023/09/06 23:27:33;;;;;;;;;;;18.80;99.90;;;;;;6719151;88;20511;-77
2023/09/06 23:37:34;;;;;;;;;;;18.70;99.90;;;;;;6717902;88;20127;-78
2023/09/06 23:47:35;;;;;;;;;;;18.70;99.90;;;;;;6727829;88;20136;-78
2023/09/06 23:57:35;;;;;;;;;;;18.40;99.90;;;;;;6720201;88;20106;-78
